Aérodrome :
LOGIN :

S'inscrire | Disclaimer

   EN    FR    IT 

 










Légende :    VFR   VFR Marginal   IFR   IFR Intensif   IFR Très Intensif
Visi : 
Plafond : 
>= 8 km
>= 3000ft
5 à 8 km
1000 à 3000 ft
1500m à 5 km
500 à 1000 ft
800 à 1500m
200 à 500 ft
< 800m
< 200 ft
Symboles :   Orages  Brouillard  Fortes neiges  Fortes précipitations  Vent > 20 kt
SIGMETs :   Divers  Orages  Givrage  Turbulence  Onde Orograph.  Cendres Volcan.







- Altitude de l'aérodrome : 70 ft
- Code IATA : LEI


LEAM - Almeria

DERNIER METAR :
  • 301230Z 22022KT 190V260 9999 FEW030 19/14 Q1013

METARs EXPIRÉS :
  • 301200Z 22023KT 9999 FEW030 19/14 Q1014
  • 301130Z 23020KT 190V260 9999 FEW020 19/14 Q1014
  • 301100Z 23018KT 9999 FEW012 SCT025 19/15 Q1015
  • 301030Z 23019KT 9999 FEW010 SCT025 18/15 Q1015
  • 301000Z 23020KT 9999 SCT015 SCT025 18/15 Q1015

TAF TAF LEAM
Valide du 30 à 09h jusqu'au 01 à 09h UTC


300800Z 3009/0109 23018KT 9999 SCT015 SCT025 TX20/3014Z TN14/0104Z
TEMPO 3011/3020 23022G32KT
BECMG 3020/3024 32006KT
BECMG 0103/0107 12010KT
Pas de NOTAMs connus pour ce terrain.
2 SIGMETs publiés pour la FIR Madrid (LECM) :
 
Orages noyés dans la masse
LECM SIGMET 4 VALID 301115/301300 LEVA
LECM MADRID FIR/UIR EMBD TS OBS AT 0955Z WI N4410 W01030 - N4220 W01020 - N4210 W00500 - N44 W00500 TOP FL280 MOV E 30KT NC=
Turbulence forte
LECM SIGMET 3 VALID 301100/301500 LEVA
LECM MADRID FIR SEV TURB OBS AT 1054Z WI N4210 W010 - N42 W00620 - N4110 W00610 - N4110 W002 - N4350 W002 - N45 W010 SFC/FL120 STNR NC=



MET'MAP, la Météo Aéronautique d'un coup d'oeil ! - Copyright ORBIFLY Décembre 2007 - Disclaimer

ORBIFLY MET'MAP TEAM :

Programmation & Développement : Alexandra Zaïnal
Conception & Développement : Baudouin d'Aumeries
Co-Programmation & Développement : Marc-Olivier Méhu
Soutien technique & logistique : Manuel Goepfert

Contact : metmap@orbifly.com




SOURCES & CREDITS :

   NOAA